sensor_id;sensor_type;location;lat;lon;timestamp;temperature;humidity
1830;DHT22;914;48.118;11.600;2023-04-08T00:01:52;9.00;93.50
1830;DHT22;914;48.118;11.600;2023-04-08T00:04:18;9.00;94.30
1830;DHT22;914;48.118;11.600;2023-04-08T00:06:44;9.00;94.50
1830;DHT22;914;48.118;11.600;2023-04-08T00:09:10;9.30;94.20
1830;DHT22;914;48.118;11.600;2023-04-08T00:11:36;9.30;94.00
1830;DHT22;914;48.118;11.600;2023-04-08T00:14:03;9.30;94.10
1830;DHT22;914;48.118;11.600;2023-04-08T00:16:29;9.30;94.00
1830;DHT22;914;48.118;11.600;2023-04-08T00:18:54;9.20;93.90
1830;DHT22;914;48.118;11.600;2023-04-08T00:21:21;8.90;94.80
1830;DHT22;914;48.118;11.600;2023-04-08T00:23:48;9.00;95.10
1830;DHT22;914;48.118;11.600;2023-04-08T00:26:14;8.90;95.30
1830;DHT22;914;48.118;11.600;2023-04-08T00:28:40;9.00;95.10
1830;DHT22;914;48.118;11.600;2023-04-08T00:31:07;8.70;95.30
1830;DHT22;914;48.118;11.600;2023-04-08T00:33:33;8.70;96.10
1830;DHT22;914;48.118;11.600;2023-04-08T00:35:58;8.50;96.40
1830;DHT22;914;48.118;11.600;2023-04-08T00:38:24;8.80;96.20
1830;DHT22;914;48.118;11.600;2023-04-08T00:40:50;8.70;96.20
1830;DHT22;914;48.118;11.600;2023-04-08T00:43:16;8.60;96.30
1830;DHT22;914;48.118;11.600;2023-04-08T00:45:45;8.50;97.10
1830;DHT22;914;48.118;11.600;2023-04-08T00:48:11;8.60;96.70
1830;DHT22;914;48.118;11.600;2023-04-08T00:50:36;8.60;97.00
1830;DHT22;914;48.118;11.600;2023-04-08T00:53:02;8.60;97.00
1830;DHT22;914;48.118;11.600;2023-04-08T00:55:28;8.70;97.10
1830;DHT22;914;48.118;11.600;2023-04-08T00:57:55;8.70;97.30
1830;DHT22;914;48.118;11.600;2023-04-08T01:00:21;8.50;96.80
1830;DHT22;914;48.118;11.600;2023-04-08T01:03:05;8.40;97.60
1830;DHT22;914;48.118;11.600;2023-04-08T01:05:52;8.30;97.90
1830;DHT22;914;48.118;11.600;2023-04-08T01:08:21;8.20;98.20
1830;DHT22;914;48.118;11.600;2023-04-08T01:10:50;8.30;98.40
1830;DHT22;914;48.118;11.600;2023-04-08T01:13:19;8.30;98.20
1830;DHT22;914;48.118;11.600;2023-04-08T01:15:47;8.30;98.10
1830;DHT22;914;48.118;11.600;2023-04-08T01:18:14;8.20;98.40
1830;DHT22;914;48.118;11.600;2023-04-08T01:20:43;8.40;98.40
1830;DHT22;914;48.118;11.600;2023-04-08T01:26:03;8.50;97.80
1830;DHT22;914;48.118;11.600;2023-04-08T01:28:29;8.60;97.60
1830;DHT22;914;48.118;11.600;2023-04-08T01:30:57;8.50;97.70
1830;DHT22;914;48.118;11.600;2023-04-08T01:33:24;8.40;98.00
1830;DHT22;914;48.118;11.600;2023-04-08T01:35:53;8.30;98.60
1830;DHT22;914;48.118;11.600;2023-04-08T01:38:21;8.10;98.80
1830;DHT22;914;48.118;11.600;2023-04-08T01:40:48;8.10;98.70
1830;DHT22;914;48.118;11.600;2023-04-08T01:43:16;8.00;99.70
1830;DHT22;914;48.118;11.600;2023-04-08T01:45:46;8.00;99.70
1830;DHT22;914;48.118;11.600;2023-04-08T01:48:13;8.10;99.60
1830;DHT22;914;48.118;11.600;2023-04-08T01:50:41;8.00;99.30
1830;DHT22;914;48.118;11.600;2023-04-08T01:53:09;8.00;99.90
1830;DHT22;914;48.118;11.600;2023-04-08T01:55:36;7.90;99.80
1830;DHT22;914;48.118;11.600;2023-04-08T01:58:04;7.80;99.90
1830;DHT22;914;48.118;11.600;2023-04-08T02:00:31;7.90;99.90
1830;DHT22;914;48.118;11.600;2023-04-08T02:02:58;7.90;99.90
1830;DHT22;914;48.118;11.600;2023-04-08T02:05:25;8.10;99.90
1830;DHT22;914;48.118;11.600;2023-04-08T02:07:50;8.10;99.70
1830;DHT22;914;48.118;11.600;2023-04-08T02:10:16;8.00;99.90
1830;DHT22;914;48.118;11.600;2023-04-08T02:12:43;7.80;99.90
1830;DHT22;914;48.118;11.600;2023-04-08T02:15:10;7.80;99.90
1830;DHT22;914;48.118;11.600;2023-04-08T02:17:59;7.80;99.90
1830;DHT22;914;48.118;11.600;2023-04-08T02:20:37;7.90;99.90
1830;DHT22;914;48.118;11.600;2023-04-08T02:23:19;7.80;99.90
1830;DHT22;914;48.118;11.600;2023-04-08T02:25:47;7.70;99.90
1830;DHT22;914;48.118;11.600;2023-04-08T02:28:14;7.80;99.90
1830;DHT22;914;48.118;11.600;2023-04-08T02:30:49;7.90;99.90
1830;DHT22;914;48.118;11.600;2023-04-08T02:33:18;7.90;99.90
1830;DHT22;914;48.118;11.600;2023-04-08T02:35:44;8.00;99.90
1830;DHT22;914;48.118;11.600;2023-04-08T02:38:11;8.00;99.90
1830;DHT22;914;48.118;11.600;2023-04-08T02:40:37;8.00;99.90
1830;DHT22;914;48.118;11.600;2023-04-08T02:43:03;7.90;99.90
1830;DHT22;914;48.118;11.600;2023-04-08T02:45:37;7.90;99.90
1830;DHT22;914;48.118;11.600;2023-04-08T02:48:03;8.00;99.90
1830;DHT22;914;48.118;11.600;2023-04-08T02:50:29;7.90;99.90
1830;DHT22;914;48.118;11.600;2023-04-08T02:52:55;8.10;99.90
1830;DHT22;914;48.118;11.600;2023-04-08T02:55:20;8.00;99.90
1830;DHT22;914;48.118;11.600;2023-04-08T02:57:47;8.20;99.90
1830;DHT22;914;48.118;11.600;2023-04-08T03:00:13;8.10;99.90
1830;DHT22;914;48.118;11.600;2023-04-08T03:02:39;7.60;99.90
1830;DHT22;914;48.118;11.600;2023-04-08T03:05:05;7.70;99.90
1830;DHT22;914;48.118;11.600;2023-04-08T03:07:31;7.80;99.90
1830;DHT22;914;48.118;11.600;2023-04-08T03:09:57;7.80;99.90
1830;DHT22;914;48.118;11.600;2023-04-08T03:12:23;7.70;99.90
1830;DHT22;914;48.118;11.600;2023-04-08T03:14:49;8.00;99.90
1830;DHT22;914;48.118;11.600;2023-04-08T03:17:15;7.90;99.90
1830;DHT22;914;48.118;11.600;2023-04-08T03:19:41;7.90;99.90
1830;DHT22;914;48.118;11.600;2023-04-08T03:22:07;7.80;99.90
1830;DHT22;914;48.118;11.600;2023-04-08T03:24:34;7.90;99.90
1830;DHT22;914;48.118;11.600;2023-04-08T03:27:00;7.90;99.90
1830;DHT22;914;48.118;11.600;2023-04-08T03:29:25;7.90;99.90
1830;DHT22;914;48.118;11.600;2023-04-08T03:31:51;8.10;99.90
1830;DHT22;914;48.118;11.600;2023-04-08T03:34:17;8.10;99.90
1830;DHT22;914;48.118;11.600;2023-04-08T03:36:46;8.10;99.90
1830;DHT22;914;48.118;11.600;2023-04-08T03:39:14;8.00;99.90
1830;DHT22;914;48.118;11.600;2023-04-08T03:41:39;7.80;99.90
1830;DHT22;914;48.118;11.600;2023-04-08T03:44:05;7.80;99.90
1830;DHT22;914;48.118;11.600;2023-04-08T03:46:31;8.00;99.90
1830;DHT22;914;48.118;11.600;2023-04-08T03:48:56;8.00;99.90
1830;DHT22;914;48.118;11.600;2023-04-08T03:51:22;7.90;99.90
1830;DHT22;914;48.118;11.600;2023-04-08T03:53:48;7.80;99.90
1830;DHT22;914;48.118;11.600;2023-04-08T03:56:14;7.90;99.90
1830;DHT22;914;48.118;11.600;2023-04-08T03:58:39;8.10;99.90
1830;DHT22;914;48.118;11.600;2023-04-08T04:01:05;8.10;99.90
1830;DHT22;914;48.118;11.600;2023-04-08T04:03:31;8.20;99.90
1830;DHT22;914;48.118;11.600;2023-04-08T04:05:56;8.00;99.90
1830;DHT22;914;48.118;11.600;2023-04-08T04:08:22;8.30;99.90
1830;DHT22;914;48.118;11.600;2023-04-08T04:10:47;8.40;99.90
1830;DHT22;914;48.118;11.600;2023-04-08T04:13:13;8.20;99.90
1830;DHT22;914;48.118;11.600;2023-04-08T04:15:39;8.20;99.90
1830;DHT22;914;48.118;11.600;2023-04-08T04:18:06;8.20;99.90
1830;DHT22;914;48.118;11.600;2023-04-08T04:20:32;8.20;99.90
1830;DHT22;914;48.118;11.600;2023-04-08T04:22:58;8.30;99.90
1830;DHT22;914;48.118;11.600;2023-04-08T04:25:23;8.20;99.90
1830;DHT22;914;48.118;11.600;2023-04-08T04:27:49;8.30;99.90
1830;DHT22;914;48.118;11.600;2023-04-08T04:30:16;8.50;99.90
1830;DHT22;914;48.118;11.600;2023-04-08T04:32:42;8.40;99.90
1830;DHT22;914;48.118;11.600;2023-04-08T04:35:09;8.40;99.90
1830;DHT22;914;48.118;11.600;2023-04-08T04:37:34;8.30;99.90
1830;DHT22;914;48.118;11.600;2023-04-08T04:40:01;8.20;99.90
1830;DHT22;914;48.118;11.600;2023-04-08T04:42:27;8.20;99.90
1830;DHT22;914;48.118;11.600;2023-04-08T04:44:52;8.40;99.90
1830;DHT22;914;48.118;11.600;2023-04-08T04:47:19;8.50;99.90
1830;DHT22;914;48.118;11.600;2023-04-08T04:49:44;8.50;99.90
1830;DHT22;914;48.118;11.600;2023-04-08T04:52:10;8.60;99.90
1830;DHT22;914;48.118;11.600;2023-04-08T04:54:36;8.60;99.90
1830;DHT22;914;48.118;11.600;2023-04-08T04:57:02;8.50;99.90
1830;DHT22;914;48.118;11.600;2023-04-08T04:59:27;8.30;99.90
1830;DHT22;914;48.118;11.600;2023-04-08T05:01:53;8.20;99.90
1830;DHT22;914;48.118;11.600;2023-04-08T05:04:22;8.40;99.90
1830;DHT22;914;48.118;11.600;2023-04-08T05:06:48;8.50;99.90
1830;DHT22;914;48.118;11.600;2023-04-08T05:09:13;8.20;99.90
1830;DHT22;914;48.118;11.600;2023-04-08T05:11:39;8.30;99.90
1830;DHT22;914;48.118;11.600;2023-04-08T05:14:05;8.40;99.90
1830;DHT22;914;48.118;11.600;2023-04-08T05:16:32;8.30;99.90
1830;DHT22;914;48.118;11.600;2023-04-08T05:18:57;8.60;99.90
1830;DHT22;914;48.118;11.600;2023-04-08T05:21:23;8.40;99.90
1830;DHT22;914;48.118;11.600;2023-04-08T05:23:49;8.50;99.90
1830;DHT22;914;48.118;11.600;2023-04-08T05:26:20;8.70;99.90
1830;DHT22;914;48.118;11.600;2023-04-08T05:28:49;8.40;99.90
1830;DHT22;914;48.118;11.600;2023-04-08T05:31:19;8.30;99.90
1830;DHT22;914;48.118;11.600;2023-04-08T05:33:45;8.50;99.90
1830;DHT22;914;48.118;11.600;2023-04-08T05:36:11;8.80;99.90
1830;DHT22;914;48.118;11.600;2023-04-08T05:38:38;8.60;99.90
1830;DHT22;914;48.118;11.600;2023-04-08T05:41:04;8.70;99.90
1830;DHT22;914;48.118;11.600;2023-04-08T05:43:32;8.80;99.90
1830;DHT22;914;48.118;11.600;2023-04-08T05:45:57;8.70;99.90
1830;DHT22;914;48.118;11.600;2023-04-08T05:48:23;8.50;99.90
1830;DHT22;914;48.118;11.600;2023-04-08T05:50:49;8.70;99.90
1830;DHT22;914;48.118;11.600;2023-04-08T05:53:15;9.00;99.90
1830;DHT22;914;48.118;11.600;2023-04-08T05:55:40;8.90;99.90
1830;DHT22;914;48.118;11.600;2023-04-08T05:58:06;9.00;99.90
1830;DHT22;914;48.118;11.600;2023-04-08T06:00:32;9.40;99.90
1830;DHT22;914;48.118;11.600;2023-04-08T06:02:57;8.90;99.90
1830;DHT22;914;48.118;11.600;2023-04-08T06:05:23;8.70;99.90
1830;DHT22;914;48.118;11.600;2023-04-08T06:07:49;8.70;99.90
1830;DHT22;914;48.118;11.600;2023-04-08T06:10:14;8.90;99.90
1830;DHT22;914;48.118;11.600;2023-04-08T06:12:40;8.90;99.90
1830;DHT22;914;48.118;11.600;2023-04-08T06:15:07;9.10;99.90
1830;DHT22;914;48.118;11.600;2023-04-08T06:17:35;9.10;99.90
1830;DHT22;914;48.118;11.600;2023-04-08T06:20:02;8.80;99.90
1830;DHT22;914;48.118;11.600;2023-04-08T06:22:31;9.00;99.90
1830;DHT22;914;48.118;11.600;2023-04-08T06:24:56;9.10;99.90
1830;DHT22;914;48.118;11.600;2023-04-08T06:27:22;9.40;99.90
1830;DHT22;914;48.118;11.600;2023-04-08T06:29:47;9.10;99.90
1830;DHT22;914;48.118;11.600;2023-04-08T06:32:13;9.40;99.90
1830;DHT22;914;48.118;11.600;2023-04-08T06:34:39;9.60;99.90
1830;DHT22;914;48.118;11.600;2023-04-08T06:37:05;9.30;99.90
1830;DHT22;914;48.118;11.600;2023-04-08T06:39:32;9.30;99.90
1830;DHT22;914;48.118;11.600;2023-04-08T06:41:58;9.10;99.90
1830;DHT22;914;48.118;11.600;2023-04-08T06:44:24;8.80;99.90
1830;DHT22;914;48.118;11.600;2023-04-08T06:46:49;8.90;99.90
1830;DHT22;914;48.118;11.600;2023-04-08T06:49:15;9.00;99.90
1830;DHT22;914;48.118;11.600;2023-04-08T06:51:41;8.90;99.90
1830;DHT22;914;48.118;11.600;2023-04-08T06:54:07;9.10;99.90
1830;DHT22;914;48.118;11.600;2023-04-08T06:56:35;9.10;99.90
1830;DHT22;914;48.118;11.600;2023-04-08T06:59:01;9.10;99.90
1830;DHT22;914;48.118;11.600;2023-04-08T07:01:27;9.30;99.90
1830;DHT22;914;48.118;11.600;2023-04-08T07:03:53;9.20;99.90
1830;DHT22;914;48.118;11.600;2023-04-08T07:06:18;9.30;99.90
1830;DHT22;914;48.118;11.600;2023-04-08T07:08:45;9.20;99.90
1830;DHT22;914;48.118;11.600;2023-04-08T07:11:10;9.30;99.90
1830;DHT22;914;48.118;11.600;2023-04-08T07:13:36;9.40;99.90
1830;DHT22;914;48.118;11.600;2023-04-08T07:16:02;9.30;99.90
1830;DHT22;914;48.118;11.600;2023-04-08T07:18:28;9.40;99.90
1830;DHT22;914;48.118;11.600;2023-04-08T07:20:53;9.30;99.90
1830;DHT22;914;48.118;11.600;2023-04-08T07:23:19;9.70;99.90
1830;DHT22;914;48.118;11.600;2023-04-08T07:25:45;9.70;99.90
1830;DHT22;914;48.118;11.600;2023-04-08T07:28:11;9.40;99.90
1830;DHT22;914;48.118;11.600;2023-04-08T07:30:37;9.50;99.90
1830;DHT22;914;48.118;11.600;2023-04-08T07:33:02;9.60;99.70
1830;DHT22;914;48.118;11.600;2023-04-08T07:35:29;9.50;99.90
1830;DHT22;914;48.118;11.600;2023-04-08T07:37:55;9.10;99.90
1830;DHT22;914;48.118;11.600;2023-04-08T07:40:22;8.80;99.90
1830;DHT22;914;48.118;11.600;2023-04-08T07:42:48;8.80;99.90
1830;DHT22;914;48.118;11.600;2023-04-08T07:45:14;8.70;99.00
1830;DHT22;914;48.118;11.600;2023-04-08T07:47:40;8.60;98.80
1830;DHT22;914;48.118;11.600;2023-04-08T07:50:06;8.70;97.30
1830;DHT22;914;48.118;11.600;2023-04-08T07:52:33;8.60;97.70
1830;DHT22;914;48.118;11.600;2023-04-08T07:54:58;9.00;95.50
1830;DHT22;914;48.118;11.600;2023-04-08T07:57:25;8.60;96.50
1830;DHT22;914;48.118;11.600;2023-04-08T07:59:50;8.70;96.00
1830;DHT22;914;48.118;11.600;2023-04-08T08:02:16;8.90;94.00
1830;DHT22;914;48.118;11.600;2023-04-08T08:04:42;8.70;92.80
1830;DHT22;914;48.118;11.600;2023-04-08T08:07:07;8.40;92.40
1830;DHT22;914;48.118;11.600;2023-04-08T08:09:33;8.40;93.20
1830;DHT22;914;48.118;11.600;2023-04-08T08:11:59;8.50;93.50
1830;DHT22;914;48.118;11.600;2023-04-08T08:14:25;8.60;92.80
1830;DHT22;914;48.118;11.600;2023-04-08T08:16:51;8.70;91.90
1830;DHT22;914;48.118;11.600;2023-04-08T08:19:19;8.90;92.30
1830;DHT22;914;48.118;11.600;2023-04-08T08:21:45;9.00;92.20
1830;DHT22;914;48.118;11.600;2023-04-08T08:24:11;9.00;91.80
1830;DHT22;914;48.118;11.600;2023-04-08T08:26:37;8.90;92.00
1830;DHT22;914;48.118;11.600;2023-04-08T08:29:03;8.90;92.10
1830;DHT22;914;48.118;11.600;2023-04-08T08:31:29;8.90;92.10
1830;DHT22;914;48.118;11.600;2023-04-08T08:33:55;8.80;92.90
1830;DHT22;914;48.118;11.600;2023-04-08T08:36:20;8.80;93.10
1830;DHT22;914;48.118;11.600;2023-04-08T08:38:46;8.50;93.60
1830;DHT22;914;48.118;11.600;2023-04-08T08:41:12;8.40;94.20
1830;DHT22;914;48.118;11.600;2023-04-08T08:43:38;8.50;93.90
1830;DHT22;914;48.118;11.600;2023-04-08T08:46:09;8.40;94.40
1830;DHT22;914;48.118;11.600;2023-04-08T08:48:35;8.20;94.40
1830;DHT22;914;48.118;11.600;2023-04-08T08:51:10;8.10;95.50
1830;DHT22;914;48.118;11.600;2023-04-08T08:53:36;8.10;95.60
1830;DHT22;914;48.118;11.600;2023-04-08T08:56:03;8.50;95.00
1830;DHT22;914;48.118;11.600;2023-04-08T08:58:29;8.50;95.30
1830;DHT22;914;48.118;11.600;2023-04-08T09:00:55;8.30;95.00
1830;DHT22;914;48.118;11.600;2023-04-08T09:03:26;8.10;94.30
1830;DHT22;914;48.118;11.600;2023-04-08T09:06:00;8.40;94.60
1830;DHT22;914;48.118;11.600;2023-04-08T09:08:36;8.10;95.10
1830;DHT22;914;48.118;11.600;2023-04-08T09:11:13;8.00;95.80
1830;DHT22;914;48.118;11.600;2023-04-08T09:13:40;7.90;96.30
1830;DHT22;914;48.118;11.600;2023-04-08T09:16:08;7.80;97.20
1830;DHT22;914;48.118;11.600;2023-04-08T09:18:35;8.00;97.00
1830;DHT22;914;48.118;11.600;2023-04-08T09:21:06;7.70;97.10
1830;DHT22;914;48.118;11.600;2023-04-08T09:26:16;7.70;98.20
1830;DHT22;914;48.118;11.600;2023-04-08T09:28:43;7.80;97.90
1830;DHT22;914;48.118;11.600;2023-04-08T09:31:27;7.60;98.00
1830;DHT22;914;48.118;11.600;2023-04-08T09:33:55;7.80;98.00
1830;DHT22;914;48.118;11.600;2023-04-08T09:36:21;7.70;98.40
1830;DHT22;914;48.118;11.600;2023-04-08T09:38:47;7.50;97.10
1830;DHT22;914;48.118;11.600;2023-04-08T09:41:15;7.60;97.30
1830;DHT22;914;48.118;11.600;2023-04-08T09:43:49;7.90;97.20
1830;DHT22;914;48.118;11.600;2023-04-08T09:46:18;7.90;96.40
1830;DHT22;914;48.118;11.600;2023-04-08T09:48:56;7.80;95.80
1830;DHT22;914;48.118;11.600;2023-04-08T09:51:26;7.60;96.10
1830;DHT22;914;48.118;11.600;2023-04-08T09:54:13;7.70;97.30
1830;DHT22;914;48.118;11.600;2023-04-08T09:56:50;7.90;96.20
1830;DHT22;914;48.118;11.600;2023-04-08T09:59:19;8.00;96.30
1830;DHT22;914;48.118;11.600;2023-04-08T10:01:52;7.90;96.40
1830;DHT22;914;48.118;11.600;2023-04-08T10:04:20;8.00;96.40
1830;DHT22;914;48.118;11.600;2023-04-08T10:06:56;8.20;95.80
1830;DHT22;914;48.118;11.600;2023-04-08T10:09:22;8.10;94.70
1830;DHT22;914;48.118;11.600;2023-04-08T10:11:48;8.70;93.70
1830;DHT22;914;48.118;11.600;2023-04-08T10:14:14;8.60;93.90
1830;DHT22;914;48.118;11.600;2023-04-08T10:16:40;8.40;94.10
1830;DHT22;914;48.118;11.600;2023-04-08T10:19:35;8.70;94.00
1830;DHT22;914;48.118;11.600;2023-04-08T10:22:00;9.00;93.50
1830;DHT22;914;48.118;11.600;2023-04-08T10:24:26;9.10;92.90
1830;DHT22;914;48.118;11.600;2023-04-08T10:26:51;8.90;94.00
1830;DHT22;914;48.118;11.600;2023-04-08T10:31:43;9.10;93.30
1830;DHT22;914;48.118;11.600;2023-04-08T10:36:42;9.10;92.70
1830;DHT22;914;48.118;11.600;2023-04-08T10:39:08;9.40;92.90
1830;DHT22;914;48.118;11.600;2023-04-08T10:41:34;9.00;93.40
1830;DHT22;914;48.118;11.600;2023-04-08T10:44:03;8.70;93.90
1830;DHT22;914;48.118;11.600;2023-04-08T10:46:36;9.00;94.10
1830;DHT22;914;48.118;11.600;2023-04-08T10:49:02;9.20;93.50
1830;DHT22;914;48.118;11.600;2023-04-08T10:51:31;9.00;93.80
1830;DHT22;914;48.118;11.600;2023-04-08T10:54:08;9.10;94.30
1830;DHT22;914;48.118;11.600;2023-04-08T10:56:35;9.20;93.50
1830;DHT22;914;48.118;11.600;2023-04-08T10:59:01;8.90;93.80
1830;DHT22;914;48.118;11.600;2023-04-08T11:01:37;9.20;94.10
1830;DHT22;914;48.118;11.600;2023-04-08T11:04:15;9.40;93.30
1830;DHT22;914;48.118;11.600;2023-04-08T11:06:42;9.30;93.20
1830;DHT22;914;48.118;11.600;2023-04-08T11:09:08;9.40;93.30
1830;DHT22;914;48.118;11.600;2023-04-08T11:11:34;8.90;93.60
1830;DHT22;914;48.118;11.600;2023-04-08T11:14:00;8.90;93.50
1830;DHT22;914;48.118;11.600;2023-04-08T11:16:26;9.20;93.90
1830;DHT22;914;48.118;11.600;2023-04-08T11:18:53;9.00;93.90
1830;DHT22;914;48.118;11.600;2023-04-08T11:21:22;9.00;93.90
1830;DHT22;914;48.118;11.600;2023-04-08T11:23:51;8.70;94.60
1830;DHT22;914;48.118;11.600;2023-04-08T11:26:18;8.80;94.90
1830;DHT22;914;48.118;11.600;2023-04-08T11:28:45;8.90;94.90
1830;DHT22;914;48.118;11.600;2023-04-08T11:31:12;9.00;94.10
1830;DHT22;914;48.118;11.600;2023-04-08T11:33:44;9.00;94.40
1830;DHT22;914;48.118;11.600;2023-04-08T11:36:11;8.70;95.50
1830;DHT22;914;48.118;11.600;2023-04-08T11:38:40;8.80;95.40
1830;DHT22;914;48.118;11.600;2023-04-08T11:41:06;8.90;96.30
1830;DHT22;914;48.118;11.600;2023-04-08T11:43:32;8.90;95.50
1830;DHT22;914;48.118;11.600;2023-04-08T11:46:10;8.40;96.60
1830;DHT22;914;48.118;11.600;2023-04-08T11:48:37;8.10;97.60
1830;DHT22;914;48.118;11.600;2023-04-08T11:51:07;8.20;98.60
1830;DHT22;914;48.118;11.600;2023-04-08T11:53:36;8.00;98.20
1830;DHT22;914;48.118;11.600;2023-04-08T11:56:18;8.10;99.70
1830;DHT22;914;48.118;11.600;2023-04-08T11:58:44;8.10;98.50
1830;DHT22;914;48.118;11.600;2023-04-08T12:01:11;7.90;98.00
1830;DHT22;914;48.118;11.600;2023-04-08T12:03:36;7.90;98.70
1830;DHT22;914;48.118;11.600;2023-04-08T12:06:02;7.90;98.30
1830;DHT22;914;48.118;11.600;2023-04-08T12:08:30;7.80;98.90
1830;DHT22;914;48.118;11.600;2023-04-08T12:10:55;8.00;97.70
1830;DHT22;914;48.118;11.600;2023-04-08T12:13:21;8.10;98.00
1830;DHT22;914;48.118;11.600;2023-04-08T12:15:47;7.90;97.70
1830;DHT22;914;48.118;11.600;2023-04-08T12:18:13;8.50;96.90
1830;DHT22;914;48.118;11.600;2023-04-08T12:20:38;8.30;96.90
1830;DHT22;914;48.118;11.600;2023-04-08T12:23:04;8.00;97.10
1830;DHT22;914;48.118;11.600;2023-04-08T12:25:32;8.20;97.40
1830;DHT22;914;48.118;11.600;2023-04-08T12:27:58;8.30;97.10
1830;DHT22;914;48.118;11.600;2023-04-08T12:30:24;8.30;97.30
1830;DHT22;914;48.118;11.600;2023-04-08T12:32:49;8.30;96.00
1830;DHT22;914;48.118;11.600;2023-04-08T12:35:15;7.90;96.70
1830;DHT22;914;48.118;11.600;2023-04-08T12:37:40;8.00;96.80
1830;DHT22;914;48.118;11.600;2023-04-08T12:40:07;8.10;96.70
1830;DHT22;914;48.118;11.600;2023-04-08T12:42:32;8.00;96.90
1830;DHT22;914;48.118;11.600;2023-04-08T12:44:59;7.90;96.90
1830;DHT22;914;48.118;11.600;2023-04-08T12:47:25;7.90;97.70
1830;DHT22;914;48.118;11.600;2023-04-08T12:49:51;7.70;97.40
1830;DHT22;914;48.118;11.600;2023-04-08T12:52:16;7.80;98.20
1830;DHT22;914;48.118;11.600;2023-04-08T12:54:43;7.80;97.40
1830;DHT22;914;48.118;11.600;2023-04-08T12:57:08;8.10;97.90
1830;DHT22;914;48.118;11.600;2023-04-08T12:59:37;7.90;97.60
1830;DHT22;914;48.118;11.600;2023-04-08T13:02:04;8.00;97.10
1830;DHT22;914;48.118;11.600;2023-04-08T13:04:30;8.10;97.40
1830;DHT22;914;48.118;11.600;2023-04-08T13:06:55;8.10;97.00
1830;DHT22;914;48.118;11.600;2023-04-08T13:09:21;8.00;97.60
1830;DHT22;914;48.118;11.600;2023-04-08T13:11:47;8.00;97.50
1830;DHT22;914;48.118;11.600;2023-04-08T13:14:13;7.70;98.30
1830;DHT22;914;48.118;11.600;2023-04-08T13:16:38;7.50;99.40
1830;DHT22;914;48.118;11.600;2023-04-08T13:19:04;7.40;99.80
1830;DHT22;914;48.118;11.600;2023-04-08T13:21:29;7.60;99.70
1830;DHT22;914;48.118;11.600;2023-04-08T13:23:56;7.60;99.80
1830;DHT22;914;48.118;11.600;2023-04-08T13:26:21;7.80;99.70
1830;DHT22;914;48.118;11.600;2023-04-08T13:28:47;7.70;99.90
1830;DHT22;914;48.118;11.600;2023-04-08T13:31:12;7.70;99.90
1830;DHT22;914;48.118;11.600;2023-04-08T13:33:38;7.70;99.90
1830;DHT22;914;48.118;11.600;2023-04-08T13:36:04;7.90;99.70
1830;DHT22;914;48.118;11.600;2023-04-08T13:38:29;7.90;99.90
1830;DHT22;914;48.118;11.600;2023-04-08T13:40:55;7.80;99.90
1830;DHT22;914;48.118;11.600;2023-04-08T13:43:21;7.60;99.90
1830;DHT22;914;48.118;11.600;2023-04-08T13:45:47;7.50;99.90
1830;DHT22;914;48.118;11.600;2023-04-08T13:48:12;7.50;99.90
1830;DHT22;914;48.118;11.600;2023-04-08T13:50:38;7.40;99.90
1830;DHT22;914;48.118;11.600;2023-04-08T13:53:04;7.60;99.90
1830;DHT22;914;48.118;11.600;2023-04-08T13:55:30;7.70;99.90
1830;DHT22;914;48.118;11.600;2023-04-08T13:57:55;7.40;99.90
1830;DHT22;914;48.118;11.600;2023-04-08T14:00:21;7.30;99.90
1830;DHT22;914;48.118;11.600;2023-04-08T14:02:47;7.30;99.90
1830;DHT22;914;48.118;11.600;2023-04-08T14:05:14;7.20;99.90
1830;DHT22;914;48.118;11.600;2023-04-08T14:07:40;7.30;99.90
1830;DHT22;914;48.118;11.600;2023-04-08T14:10:06;7.30;99.90
1830;DHT22;914;48.118;11.600;2023-04-08T14:12:32;7.60;99.90
1830;DHT22;914;48.118;11.600;2023-04-08T14:14:58;7.60;99.90
1830;DHT22;914;48.118;11.600;2023-04-08T14:17:23;7.50;99.90
1830;DHT22;914;48.118;11.600;2023-04-08T14:19:50;7.60;99.90
1830;DHT22;914;48.118;11.600;2023-04-08T14:22:16;7.50;99.90
1830;DHT22;914;48.118;11.600;2023-04-08T14:24:43;7.40;99.90
1830;DHT22;914;48.118;11.600;2023-04-08T14:27:09;7.80;99.90
1830;DHT22;914;48.118;11.600;2023-04-08T14:29:34;7.90;99.90
1830;DHT22;914;48.118;11.600;2023-04-08T14:32:00;8.20;99.90
1830;DHT22;914;48.118;11.600;2023-04-08T14:34:26;7.90;99.60
1830;DHT22;914;48.118;11.600;2023-04-08T14:36:51;7.70;99.90
1830;DHT22;914;48.118;11.600;2023-04-08T14:39:17;7.70;99.90
1830;DHT22;914;48.118;11.600;2023-04-08T14:41:42;8.00;99.90
1830;DHT22;914;48.118;11.600;2023-04-08T14:44:08;8.30;99.90
1830;DHT22;914;48.118;11.600;2023-04-08T14:46:34;8.30;99.50
1830;DHT22;914;48.118;11.600;2023-04-08T14:48:59;8.40;99.60
1830;DHT22;914;48.118;11.600;2023-04-08T14:51:25;8.30;99.40
1830;DHT22;914;48.118;11.600;2023-04-08T14:53:51;8.40;99.50
1830;DHT22;914;48.118;11.600;2023-04-08T14:56:17;8.60;99.00
1830;DHT22;914;48.118;11.600;2023-04-08T14:58:42;8.70;98.60
1830;DHT22;914;48.118;11.600;2023-04-08T15:01:08;8.80;98.20
1830;DHT22;914;48.118;11.600;2023-04-08T15:03:33;8.70;98.00
1830;DHT22;914;48.118;11.600;2023-04-08T15:05:59;8.70;98.50
1830;DHT22;914;48.118;11.600;2023-04-08T15:08:25;8.80;97.40
1830;DHT22;914;48.118;11.600;2023-04-08T15:10:51;8.80;97.80
1830;DHT22;914;48.118;11.600;2023-04-08T15:13:17;8.70;97.50
1830;DHT22;914;48.118;11.600;2023-04-08T15:15:42;8.60;97.90
1830;DHT22;914;48.118;11.600;2023-04-08T15:18:08;8.50;97.70
1830;DHT22;914;48.118;11.600;2023-04-08T15:20:34;8.50;98.30
1830;DHT22;914;48.118;11.600;2023-04-08T15:22:59;8.40;97.80
1830;DHT22;914;48.118;11.600;2023-04-08T15:25:25;8.40;97.70
1830;DHT22;914;48.118;11.600;2023-04-08T15:27:51;8.20;98.30
1830;DHT22;914;48.118;11.600;2023-04-08T15:30:17;8.20;98.80
1830;DHT22;914;48.118;11.600;2023-04-08T15:32:49;8.10;98.80
1830;DHT22;914;48.118;11.600;2023-04-08T15:35:15;8.20;98.90
1830;DHT22;914;48.118;11.600;2023-04-08T15:37:41;8.10;99.00
1830;DHT22;914;48.118;11.600;2023-04-08T15:40:07;8.20;98.80
1830;DHT22;914;48.118;11.600;2023-04-08T15:42:32;8.20;99.30
1830;DHT22;914;48.118;11.600;2023-04-08T15:45:04;8.20;99.30
1830;DHT22;914;48.118;11.600;2023-04-08T15:47:30;8.40;99.20
1830;DHT22;914;48.118;11.600;2023-04-08T15:49:57;8.60;98.10
1830;DHT22;914;48.118;11.600;2023-04-08T15:52:24;8.40;98.70
1830;DHT22;914;48.118;11.600;2023-04-08T15:54:50;8.40;99.20
1830;DHT22;914;48.118;11.600;2023-04-08T15:57:16;8.50;98.90
1830;DHT22;914;48.118;11.600;2023-04-08T15:59:41;8.40;99.20
1830;DHT22;914;48.118;11.600;2023-04-08T16:02:07;8.40;98.90
1830;DHT22;914;48.118;11.600;2023-04-08T16:04:33;8.30;99.10
1830;DHT22;914;48.118;11.600;2023-04-08T16:06:58;8.30;99.70
1830;DHT22;914;48.118;11.600;2023-04-08T16:09:24;8.40;99.80
1830;DHT22;914;48.118;11.600;2023-04-08T16:11:51;8.50;99.20
1830;DHT22;914;48.118;11.600;2023-04-08T16:14:17;8.30;99.80
1830;DHT22;914;48.118;11.600;2023-04-08T16:16:43;8.10;99.90
1830;DHT22;914;48.118;11.600;2023-04-08T16:19:09;8.10;99.90
1830;DHT22;914;48.118;11.600;2023-04-08T16:21:34;8.00;99.90
1830;DHT22;914;48.118;11.600;2023-04-08T16:24:00;8.20;99.90
1830;DHT22;914;48.118;11.600;2023-04-08T16:26:26;8.40;99.90